Terminal Aerodrome Forecast
Issued by NWS

Home | Current Version | Previous Version | Text Only | Print | Product List | Glossary On
Versions: 1 2 3 4 5 6 7 8 9 10 11 12
000
FTUS45 KTFX 291700
TAFBZN
TAF
KBZN 291736Z 2918/3018 VRB05KT P6SM SCT180
     FM300300 16006KT P6SM BKN150
     FM301100 31006KT P6SM SCT035 OVC080
      TEMPO 3011/3015 VRB15G35KT 5SM -SHRA BKN035=

USA.gov is the U.S. government's official web portal to all federal, state and local government web resources and services.